createdAt,value
2023-02-04T00:00:17.606Z,98384.81
2023-02-04T00:02:44.495Z,98405.56
2023-02-04T00:05:12.807Z,98401.25
2023-02-04T00:07:41.486Z,98406.06
2023-02-04T00:10:09.148Z,98418.91
2023-02-04T00:12:36.706Z,98407.47
2023-02-04T00:15:04.256Z,98404.66
2023-02-04T00:17:31.083Z,98407.31
2023-02-04T00:20:01.430Z,98416.13
2023-02-04T00:22:31.482Z,98422.19
2023-02-04T00:24:58.317Z,98423.41
2023-02-04T00:27:25.077Z,98431.19
2023-02-04T00:29:52.092Z,98437.69
2023-02-04T00:32:19.124Z,98447.28
2023-02-04T00:34:47.241Z,98455.34
2023-02-04T00:37:15.162Z,98461.06
2023-02-04T00:39:42.102Z,98460.28
2023-02-04T00:42:09.007Z,98459.06
2023-02-04T00:44:36.778Z,98452.41
2023-02-04T00:47:04.165Z,98460.78
2023-02-04T00:49:33.350Z,98469.88
2023-02-04T00:52:00.455Z,98470.53
2023-02-04T00:54:28.140Z,98472.56
2023-02-04T00:56:54.992Z,98484.16
2023-02-04T00:59:22.534Z,98473.00
2023-02-04T01:01:51.795Z,98475.47
2023-02-04T01:04:19.061Z,98475.94
2023-02-04T01:06:45.975Z,98476.41
2023-02-04T01:09:12.913Z,98493.91
2023-02-04T01:11:41.010Z,98504.28
2023-02-04T01:14:08.097Z,98508.31
2023-02-04T01:16:35.266Z,98506.16
2023-02-04T01:19:03.053Z,98503.38
2023-02-04T01:21:30.334Z,98501.19
2023-02-04T01:23:57.765Z,98493.88
2023-02-04T01:26:25.883Z,98484.25
2023-02-04T01:28:54.668Z,98496.63
2023-02-04T01:31:22.203Z,98502.06
2023-02-04T01:33:49.230Z,98503.44
2023-02-04T01:36:22.139Z,98498.63
2023-02-04T01:38:50.475Z,98510.53
2023-02-04T01:41:19.007Z,98504.31
2023-02-04T01:43:49.553Z,98503.53
2023-02-04T01:46:17.889Z,98509.59
2023-02-04T01:48:46.924Z,98515.16
2023-02-04T01:51:17.191Z,98519.50
2023-02-04T01:53:44.139Z,98516.56
2023-02-04T01:56:27.708Z,98528.03
2023-02-04T01:58:57.749Z,98526.78
2023-02-04T02:01:49.268Z,98534.69
2023-02-04T02:04:20.348Z,98534.84
2023-02-04T02:06:51.760Z,98548.16
2023-02-04T02:09:18.596Z,98552.94
2023-02-04T02:11:47.642Z,98550.78
2023-02-04T02:14:15.428Z,98562.44
2023-02-04T02:16:42.672Z,98562.44
2023-02-04T02:19:18.221Z,98571.41
2023-02-04T02:21:56.617Z,98572.38
2023-02-04T02:24:30.643Z,98580.25
2023-02-04T02:27:04.229Z,98575.81
2023-02-04T02:29:31.691Z,98573.00
2023-02-04T02:31:59.892Z,98578.88
2023-02-04T02:34:28.774Z,98584.00
2023-02-04T02:36:58.153Z,98590.03
2023-02-04T02:39:25.867Z,98589.25
2023-02-04T02:41:53.316Z,98599.97
2023-02-04T02:44:21.675Z,98596.72
2023-02-04T02:46:49.062Z,98604.75
2023-02-04T02:49:18.873Z,98605.53
2023-02-04T02:51:48.847Z,98605.53
2023-02-04T02:54:35.688Z,98608.00
2023-02-04T02:57:13.743Z,98616.69
2023-02-04T02:59:41.096Z,98624.28
2023-02-04T03:02:10.211Z,98617.91
2023-02-04T03:04:42.883Z,98610.47
2023-02-04T03:07:14.491Z,98619.16
2023-02-04T03:09:41.941Z,98616.06
2023-02-04T03:12:09.036Z,98612.16
2023-02-04T03:14:38.637Z,98628.13
2023-02-04T03:17:09.075Z,98624.22
2023-02-04T03:19:37.748Z,98635.84
2023-02-04T03:22:06.146Z,98652.88
2023-02-04T03:24:33.280Z,98644.22
2023-02-04T03:27:00.433Z,98672.41
2023-02-04T03:29:29.686Z,98664.94
2023-02-04T03:32:00.421Z,98681.69
2023-02-04T03:34:28.949Z,98676.88
2023-02-04T03:36:56.104Z,98683.53
2023-02-04T03:39:23.873Z,98694.25
2023-02-04T03:41:50.906Z,98722.44
2023-02-04T03:44:18.908Z,98727.69
2023-02-04T03:46:46.075Z,98748.03
2023-02-04T03:49:13.078Z,98756.16
2023-02-04T03:51:40.235Z,98748.94
2023-02-04T03:54:07.294Z,98753.66
2023-02-04T03:56:38.214Z,98770.84
2023-02-04T03:59:06.688Z,98774.50
2023-02-04T04:01:34.851Z,98782.19
2023-02-04T04:04:01.818Z,98792.69
2023-02-04T04:06:28.762Z,98795.94
2023-02-04T04:08:55.704Z,98804.72
2023-02-04T04:11:22.656Z,98801.59
2023-02-04T04:13:50.727Z,98806.50
2023-02-04T04:16:18.254Z,98816.00
2023-02-04T04:18:45.329Z,98826.47
2023-02-04T04:21:12.799Z,98818.22
2023-02-04T04:23:41.887Z,98826.56
2023-02-04T04:26:08.932Z,98823.78
2023-02-04T04:28:38.024Z,98835.81
2023-02-04T04:31:05.296Z,98845.84
2023-02-04T04:33:32.426Z,98851.09
2023-02-04T04:35:59.599Z,98851.53
2023-02-04T04:38:27.643Z,98859.91
2023-02-04T04:40:55.091Z,98868.25
2023-02-04T04:43:22.138Z,98878.47
2023-02-04T04:45:50.760Z,98876.00
2023-02-04T04:48:17.863Z,98884.06
2023-02-04T04:50:45.254Z,98895.63
2023-02-04T04:53:12.099Z,98879.59
2023-02-04T04:55:39.180Z,98903.19
2023-02-04T04:58:07.403Z,98905.66
2023-02-04T05:00:35.058Z,98914.00
2023-02-04T05:03:02.019Z,98922.34
2023-02-04T05:05:28.764Z,98929.16
2023-02-04T05:07:55.710Z,98920.44
2023-02-04T05:10:22.579Z,98924.78
2023-02-04T05:12:49.392Z,98920.78
2023-02-04T05:15:16.317Z,98930.47
2023-02-04T05:17:43.067Z,98916.56
2023-02-04T05:20:10.301Z,98932.72
2023-02-04T05:22:37.064Z,98941.41
2023-02-04T05:25:04.062Z,98944.94
2023-02-04T05:27:33.528Z,98951.00
2023-02-04T05:30:00.400Z,98951.00
2023-02-04T05:32:27.224Z,98957.00
2023-02-04T05:34:54.058Z,98957.00
2023-02-04T05:37:21.175Z,98958.66
2023-02-04T05:39:48.124Z,98959.88
2023-02-04T05:42:14.856Z,98962.00
2023-02-04T05:44:41.614Z,98971.56
2023-02-04T05:47:08.435Z,98975.56
2023-02-04T05:49:35.789Z,98984.28
2023-02-04T05:52:02.590Z,98987.50
2023-02-04T05:54:29.517Z,99000.09
2023-02-04T05:56:56.494Z,98992.09
2023-02-04T05:59:23.364Z,98989.72
2023-02-04T06:01:50.181Z,99004.00
2023-02-04T06:04:17.293Z,99004.88
2023-02-04T06:06:44.338Z,99001.75
2023-02-04T06:09:11.161Z,99008.97
2023-02-04T06:11:38.110Z,99016.22
2023-02-04T06:14:05.038Z,99013.09
2023-02-04T06:16:31.837Z,99019.44
2023-02-04T06:18:58.636Z,99029.00
2023-02-04T06:21:25.497Z,99035.47
2023-02-04T06:23:52.264Z,99048.84
2023-02-04T06:26:19.040Z,99044.16
2023-02-04T06:28:45.982Z,99046.28
2023-02-04T06:31:12.873Z,99060.19
2023-02-04T06:33:39.794Z,99052.28
2023-02-04T06:36:06.958Z,99054.72
2023-02-04T06:38:33.866Z,99055.50
2023-02-04T06:41:00.630Z,99070.63
2023-02-04T06:43:28.122Z,99075.88
2023-02-04T06:45:55.064Z,99068.41
2023-02-04T06:48:21.953Z,99072.72
2023-02-04T06:50:48.834Z,99079.53
2023-02-04T06:53:15.770Z,99078.84
2023-02-04T06:55:42.707Z,99086.50
2023-02-04T06:58:09.878Z,99086.69
2023-02-04T07:00:36.699Z,99092.63
2023-02-04T07:03:03.628Z,99097.50
2023-02-04T07:05:30.566Z,99093.69
2023-02-04T07:07:57.332Z,99106.53
2023-02-04T07:10:24.172Z,99110.56
2023-02-04T07:12:50.995Z,99110.63
2023-02-04T07:15:17.888Z,99115.75
2023-02-04T07:17:45.090Z,99122.44
2023-02-04T07:20:12.582Z,99138.72
2023-02-04T07:22:39.406Z,99143.94
2023-02-04T07:25:06.662Z,99159.50
2023-02-04T07:27:33.427Z,99164.25
2023-02-04T07:30:00.227Z,99169.41
2023-02-04T07:32:27.989Z,99166.25
2023-02-04T07:34:54.795Z,99156.81
2023-02-04T07:37:23.011Z,99166.25
2023-02-04T07:39:49.759Z,99175.41
2023-02-04T07:42:16.536Z,99177.84
2023-02-04T07:44:52.016Z,99187.13
2023-02-04T07:47:18.801Z,99184.06
2023-02-04T07:49:45.541Z,99194.34
2023-02-04T07:52:12.488Z,99190.38
2023-02-04T07:54:39.338Z,99195.06
2023-02-04T07:57:06.121Z,99192.28
2023-02-04T07:59:32.915Z,99192.59
2023-02-04T08:02:00.012Z,99195.75
2023-02-04T08:04:26.882Z,99201.31
2023-02-04T08:06:53.641Z,99214.34
2023-02-04T08:09:20.471Z,99223.03
2023-02-04T08:11:47.226Z,99219.38
2023-02-04T08:14:14.059Z,99220.09
2023-02-04T08:16:40.854Z,99220.78
2023-02-04T08:19:07.618Z,99240.16
2023-02-04T08:21:34.459Z,99246.88
2023-02-04T08:24:01.263Z,99246.78
2023-02-04T08:26:28.012Z,99254.69
2023-02-04T08:28:54.859Z,99254.25
2023-02-04T08:31:21.703Z,99267.38
2023-02-04T08:33:48.539Z,99265.84
2023-02-04T08:36:15.338Z,99268.94
2023-02-04T08:38:42.183Z,99268.09
2023-02-04T08:41:09.066Z,99264.09
2023-02-04T08:43:37.051Z,99266.53
2023-02-04T08:46:04.106Z,99263.38
2023-02-04T08:48:30.934Z,99278.69
2023-02-04T08:50:57.734Z,99277.06
2023-02-04T08:53:24.526Z,99286.53
2023-02-04T08:55:51.368Z,99299.22
2023-02-04T08:58:18.137Z,99296.97
2023-02-04T09:00:45.026Z,99292.78
2023-02-04T09:03:11.973Z,99300.75
2023-02-04T09:05:38.778Z,99307.03
2023-02-04T09:08:05.749Z,99315.47
2023-02-04T09:10:32.806Z,99321.41
2023-02-04T09:12:59.919Z,99324.09
2023-02-04T09:15:26.865Z,99325.22
2023-02-04T09:17:54.486Z,99329.16
2023-02-04T09:20:21.866Z,99336.63
2023-02-04T09:22:50.364Z,99346.03
2023-02-04T09:25:17.127Z,99334.34
2023-02-04T09:27:43.930Z,99345.34
2023-02-04T09:30:11.275Z,99347.94
2023-02-04T09:32:38.020Z,99348.66
2023-02-04T09:35:05.318Z,99347.09
2023-02-04T09:37:32.116Z,99352.66
2023-02-04T09:39:58.906Z,99351.25
2023-02-04T09:42:26.771Z,99360.47
2023-02-04T09:44:53.771Z,99363.34
2023-02-04T09:47:24.261Z,99370.53
2023-02-04T09:49:51.860Z,99371.78
2023-02-04T09:52:19.813Z,99386.41
2023-02-04T09:54:46.775Z,99376.75
2023-02-04T09:57:20.859Z,99380.66
2023-02-04T09:59:47.814Z,99376.16
2023-02-04T10:02:26.311Z,99382.75
2023-02-04T10:04:57.709Z,99393.75
2023-02-04T10:07:26.667Z,99392.88
2023-02-04T10:09:54.960Z,99398.00
2023-02-04T10:12:22.094Z,99392.00
2023-02-04T10:14:49.773Z,99396.00
2023-02-04T10:17:21.795Z,99399.56
2023-02-04T10:19:48.731Z,99404.69
2023-02-04T10:22:21.728Z,99396.53
2023-02-04T10:24:48.717Z,99399.31
2023-02-04T10:27:16.599Z,99389.19
2023-02-04T10:29:54.817Z,99399.81
2023-02-04T10:32:30.729Z,99393.75
2023-02-04T10:35:00.144Z,99400.09
2023-02-04T10:37:27.080Z,99404.28
2023-02-04T10:39:54.072Z,99396.09
2023-02-04T10:42:24.098Z,99393.81
2023-02-04T10:44:51.755Z,99386.75
2023-02-04T10:47:22.280Z,99385.34
2023-02-04T10:49:54.553Z,99392.28
2023-02-04T10:52:24.341Z,99385.41
2023-02-04T10:54:51.211Z,99378.88
2023-02-04T10:57:28.745Z,99392.25
2023-02-04T10:59:59.304Z,99390.59
2023-02-04T11:02:31.735Z,99401.06
2023-02-04T11:04:58.776Z,99395.78
2023-02-04T11:07:25.597Z,99394.13
2023-02-04T11:09:52.533Z,99407.78
2023-02-04T11:12:21.352Z,99397.91
2023-02-04T11:14:56.310Z,99399.41
2023-02-04T11:17:31.525Z,99398.16
2023-02-04T11:19:58.447Z,99400.13
2023-02-04T11:22:41.769Z,99401.69
2023-02-04T11:25:39.717Z,99413.00
2023-02-04T11:28:24.457Z,99411.84
2023-02-04T11:31:02.618Z,99409.41
2023-02-04T11:33:41.593Z,99414.38
2023-02-04T11:36:12.144Z,99407.66
2023-02-04T11:38:39.741Z,99408.72
2023-02-04T11:41:06.648Z,99414.00
2023-02-04T11:43:35.133Z,99417.63
2023-02-04T11:46:17.454Z,99422.66
2023-02-04T11:48:44.742Z,99424.84
2023-02-04T11:51:17.293Z,99416.59
2023-02-04T11:53:44.314Z,99417.97
2023-02-04T11:56:22.060Z,99414.44
2023-02-04T11:58:50.208Z,99417.94
2023-02-04T12:01:22.052Z,99416.06
2023-02-04T12:03:51.441Z,99415.78
2023-02-04T12:06:22.647Z,99428.88
2023-02-04T12:08:49.685Z,99426.69
2023-02-04T12:11:30.471Z,99426.72
2023-02-04T12:14:06.080Z,99430.19
2023-02-04T12:16:48.983Z,99432.31
2023-02-04T12:19:15.789Z,99441.13
2023-02-04T12:21:42.566Z,99435.19
2023-02-04T12:24:09.682Z,99441.03
2023-02-04T12:26:36.461Z,99438.44
2023-02-04T12:29:05.697Z,99446.16
2023-02-04T12:31:33.349Z,99447.91
2023-02-04T12:34:00.491Z,99454.03
2023-02-04T12:36:27.966Z,99444.97
2023-02-04T12:38:54.800Z,99454.44
2023-02-04T12:41:21.913Z,99447.06
2023-02-04T12:43:50.660Z,99457.09
2023-02-04T12:46:18.316Z,99453.09
2023-02-04T12:48:45.145Z,99447.84
2023-02-04T12:51:12.038Z,99455.69
2023-02-04T12:53:38.802Z,99455.13
2023-02-04T12:56:06.178Z,99458.59
2023-02-04T12:58:32.910Z,99451.34
2023-02-04T13:00:59.718Z,99450.56
2023-02-04T13:03:26.709Z,99445.75
2023-02-04T13:05:53.486Z,99450.56
2023-02-04T13:08:20.297Z,99453.75
2023-02-04T13:10:52.002Z,99459.88
2023-02-04T13:13:20.060Z,99455.19
2023-02-04T13:15:46.978Z,99462.88
2023-02-04T13:18:14.265Z,99465.88
2023-02-04T13:20:42.549Z,99459.63
2023-02-04T13:23:09.370Z,99465.88
2023-02-04T13:25:36.109Z,99466.69
2023-02-04T13:28:02.904Z,99462.88
2023-02-04T13:30:29.739Z,99467.03
2023-02-04T13:32:56.598Z,99459.81
2023-02-04T13:35:23.434Z,99466.84
2023-02-04T13:37:50.208Z,99464.94
2023-02-04T13:40:17.098Z,99468.06
2023-02-04T13:42:43.888Z,99465.97
2023-02-04T13:45:12.725Z,99469.00
2023-02-04T13:47:39.819Z,99470.53
2023-02-04T13:50:07.452Z,99469.22
2023-02-04T13:52:34.680Z,99464.25
2023-02-04T13:55:01.550Z,99459.34
2023-02-04T13:57:28.350Z,99465.63
2023-02-04T13:59:55.143Z,99466.72
2023-02-04T14:02:24.072Z,99454.69
2023-02-04T14:04:51.240Z,99461.91
2023-02-04T14:07:18.057Z,99459.59
2023-02-04T14:09:44.868Z,99463.81
2023-02-04T14:12:11.637Z,99457.63
2023-02-04T14:14:38.407Z,99463.25
2023-02-04T14:17:05.314Z,99456.50
2023-02-04T14:19:32.619Z,99464.78
2023-02-04T14:21:59.586Z,99463.06
2023-02-04T14:24:26.535Z,99455.84
2023-02-04T14:26:53.393Z,99457.84
2023-02-04T14:29:20.257Z,99461.13
2023-02-04T14:31:47.059Z,99463.19
2023-02-04T14:34:13.905Z,99464.72
2023-02-04T14:36:40.708Z,99470.00
2023-02-04T14:39:07.512Z,99462.97
2023-02-04T14:41:34.302Z,99460.13
2023-02-04T14:44:01.018Z,99462.06
2023-02-04T14:46:27.828Z,99462.81
2023-02-04T14:48:54.793Z,99460.75
2023-02-04T14:51:21.710Z,99467.84
2023-02-04T14:53:48.961Z,99475.38
2023-02-04T14:56:16.920Z,99476.75
2023-02-04T14:58:43.800Z,99472.56
2023-02-04T15:01:10.680Z,99467.84
2023-02-04T15:03:37.805Z,99473.75
2023-02-04T15:06:04.809Z,99470.38
2023-02-04T15:08:32.995Z,99470.50
2023-02-04T15:10:59.993Z,99468.16
2023-02-04T15:13:28.092Z,99481.84
2023-02-04T15:15:55.049Z,99474.78
2023-02-04T15:18:22.019Z,99474.50
2023-02-04T15:20:48.826Z,99485.47
2023-02-04T15:23:15.591Z,99487.03
2023-02-04T15:25:42.436Z,99483.47
2023-02-04T15:28:11.910Z,99483.81
2023-02-04T15:30:39.390Z,99481.28
2023-02-04T15:33:06.152Z,99496.25
2023-02-04T15:35:33.117Z,99485.22
2023-02-04T15:38:00.280Z,99487.06
2023-02-04T15:40:30.232Z,99486.84
2023-02-04T15:42:57.683Z,99495.13
2023-02-04T15:45:24.742Z,99495.56
2023-02-04T15:47:51.669Z,99499.94
2023-02-04T15:50:18.747Z,99500.25
2023-02-04T15:52:45.622Z,99516.47
2023-02-04T15:55:12.609Z,99518.34
2023-02-04T15:57:39.678Z,99518.56
2023-02-04T16:00:07.347Z,99514.75
2023-02-04T16:02:34.210Z,99519.31
2023-02-04T16:05:01.012Z,99519.84
2023-02-04T16:07:27.884Z,99527.19
2023-02-04T16:09:54.856Z,99529.75
2023-02-04T16:12:21.640Z,99523.56
2023-02-04T16:14:48.447Z,99516.97
2023-02-04T16:17:15.373Z,99521.16
2023-02-04T16:19:42.493Z,99528.16
2023-02-04T16:22:09.413Z,99527.56
2023-02-04T16:24:36.882Z,99534.13
2023-02-04T16:27:03.838Z,99534.41
2023-02-04T16:29:31.097Z,99537.38
2023-02-04T16:31:58.100Z,99532.41
2023-02-04T16:34:25.199Z,99539.81
2023-02-04T16:36:52.214Z,99552.00
2023-02-04T16:39:18.998Z,99554.19
2023-02-04T16:41:45.820Z,99562.78
2023-02-04T16:44:12.737Z,99568.44
2023-02-04T16:46:39.585Z,99555.81
2023-02-04T16:49:06.391Z,99557.53
2023-02-04T16:51:33.225Z,99560.06
2023-02-04T16:54:00.050Z,99571.72
2023-02-04T16:56:35.055Z,99566.66
2023-02-04T16:59:03.248Z,99564.03
2023-02-04T17:01:30.902Z,99577.25
2023-02-04T17:04:00.738Z,99577.38
2023-02-04T17:06:29.496Z,99576.69
2023-02-04T17:08:56.745Z,99572.47
2023-02-04T17:11:29.817Z,99570.69
2023-02-04T17:14:01.463Z,99571.63
2023-02-04T17:16:29.820Z,99571.81
2023-02-04T17:18:57.329Z,99573.97
2023-02-04T17:21:26.012Z,99574.22
2023-02-04T17:23:53.266Z,99568.34
2023-02-04T17:26:20.122Z,99561.28
2023-02-04T17:28:47.291Z,99561.50
2023-02-04T17:31:14.323Z,99565.97
2023-02-04T17:33:41.253Z,99561.75
2023-02-04T17:36:08.857Z,99562.59
2023-02-04T17:38:35.749Z,99557.13
2023-02-04T17:41:02.806Z,99553.63
2023-02-04T17:43:29.583Z,99561.25
2023-02-04T17:45:56.350Z,99556.16
2023-02-04T17:48:23.319Z,99559.13
2023-02-04T17:50:50.187Z,99556.16
2023-02-04T17:53:16.941Z,99558.69
2023-02-04T17:55:43.796Z,99554.84
2023-02-04T17:58:23.016Z,99555.38
2023-02-04T18:00:50.932Z,99556.63
2023-02-04T18:03:22.905Z,99562.25
2023-02-04T18:05:52.327Z,99561.13
2023-02-04T18:08:21.691Z,99558.09
2023-02-04T18:10:50.542Z,99569.75
2023-02-04T18:13:21.838Z,99561.88
2023-02-04T18:15:54.884Z,99556.78
2023-02-04T18:18:23.754Z,99566.78
2023-02-04T18:21:14.722Z,99567.66
2023-02-04T18:23:41.821Z,99572.13
2023-02-04T18:26:16.633Z,99568.25
2023-02-04T18:28:48.076Z,99569.44
2023-02-04T18:31:35.618Z,99570.28
2023-02-04T18:34:16.991Z,99570.69
2023-02-04T18:36:43.863Z,99571.03
2023-02-04T18:39:17.858Z,99569.06
2023-02-04T18:41:46.612Z,99578.59
2023-02-04T18:44:32.791Z,99574.31
2023-02-04T18:47:00.976Z,99582.63
2023-02-04T18:49:34.149Z,99585.03
2023-02-04T18:52:09.929Z,99581.88
2023-02-04T18:54:37.786Z,99585.88
2023-02-04T18:57:13.568Z,99584.72
2023-02-04T18:59:41.342Z,99585.56
2023-02-04T19:02:27.025Z,99585.16
2023-02-04T19:05:12.008Z,99593.56
2023-02-04T19:07:39.776Z,99594.00
2023-02-04T19:10:26.903Z,99592.81
2023-02-04T19:12:54.328Z,99596.81
2023-02-04T19:15:36.520Z,99589.69
2023-02-04T19:18:30.115Z,99592.06
2023-02-04T19:21:08.164Z,99593.31
2023-02-04T19:23:37.914Z,99601.63
2023-02-04T19:26:25.115Z,99599.31
2023-02-04T19:28:52.639Z,99608.03
2023-02-04T19:31:19.633Z,99612.81
2023-02-04T19:33:48.926Z,99607.28
2023-02-04T19:36:39.972Z,99608.06
2023-02-04T19:39:30.756Z,99601.75
2023-02-04T19:41:58.286Z,99595.84
2023-02-04T19:44:34.445Z,99605.34
2023-02-04T19:47:22.609Z,99612.88
2023-02-04T19:49:49.443Z,99607.41
2023-02-04T19:52:36.959Z,99609.81
2023-02-04T19:55:12.924Z,99604.72
2023-02-04T19:57:39.694Z,99604.38
2023-02-04T20:00:35.963Z,99606.78
2023-02-04T20:03:14.541Z,99607.19
2023-02-04T20:05:42.238Z,99615.50
2023-02-04T20:08:35.102Z,99613.56
2023-02-04T20:11:32.697Z,99621.09
2023-02-04T20:14:14.583Z,99619.53
2023-02-04T20:16:44.396Z,99616.78
2023-02-04T20:19:30.180Z,99617.19
2023-02-04T20:22:02.726Z,99631.41
2023-02-04T20:24:39.652Z,99630.66
2023-02-04T20:27:23.595Z,99638.16
2023-02-04T20:29:59.103Z,99638.59
2023-02-04T20:32:27.709Z,99637.81
2023-02-04T20:35:21.498Z,99642.13
2023-02-04T20:37:57.794Z,99654.03
2023-02-04T20:40:35.864Z,99646.53
2023-02-04T20:43:12.328Z,99648.91
2023-02-04T20:45:56.337Z,99649.31
2023-02-04T20:48:27.206Z,99651.72
2023-02-04T20:50:59.103Z,99644.59
2023-02-04T20:53:40.084Z,99645.00
2023-02-04T20:56:24.393Z,99638.66
2023-02-04T20:59:03.031Z,99627.63
2023-02-04T21:01:34.205Z,99634.34
2023-02-04T21:04:23.180Z,99649.38
2023-02-04T21:06:51.724Z,99653.72
2023-02-04T21:09:23.705Z,99649.81
2023-02-04T21:11:51.813Z,99641.91
2023-02-04T21:14:18.661Z,99650.59
2023-02-04T21:16:45.674Z,99648.25
2023-02-04T21:19:12.807Z,99648.25
2023-02-04T21:21:39.621Z,99656.16
2023-02-04T21:24:07.278Z,99654.56
2023-02-04T21:26:34.346Z,99660.91
2023-02-04T21:29:01.311Z,99655.78
2023-02-04T21:31:28.142Z,99663.31
2023-02-04T21:33:55.188Z,99653.06
2023-02-04T21:36:24.324Z,99666.47
2023-02-04T21:38:51.137Z,99662.50
2023-02-04T21:41:20.468Z,99671.22
2023-02-04T21:43:48.216Z,99658.59
2023-02-04T21:46:15.959Z,99656.22
2023-02-04T21:48:43.790Z,99664.13
2023-02-04T21:51:11.865Z,99662.13
2023-02-04T21:53:39.173Z,99662.53
2023-02-04T21:56:07.599Z,99664.13
2023-02-04T21:58:34.673Z,99668.88
2023-02-04T22:01:01.895Z,99662.94
2023-02-04T22:03:28.826Z,99666.88
2023-02-04T22:05:55.666Z,99672.03
2023-02-04T22:08:22.633Z,99651.50
2023-02-04T22:10:49.388Z,99657.03
2023-02-04T22:13:34.554Z,99649.94
2023-02-04T22:16:01.513Z,99649.16
2023-02-04T22:18:28.564Z,99645.59
2023-02-04T22:20:55.376Z,99644.81
2023-02-04T22:23:22.204Z,99644.84
2023-02-04T22:25:48.994Z,99651.94
2023-02-04T22:28:16.006Z,99653.09
2023-02-04T22:30:42.868Z,99640.47
2023-02-04T22:33:11.487Z,99642.06
2023-02-04T22:35:38.385Z,99643.63
2023-02-04T22:38:05.372Z,99634.56
2023-02-04T22:40:32.131Z,99638.94
2023-02-04T22:43:00.007Z,99637.34
2023-02-04T22:45:26.838Z,99637.34
2023-02-04T22:47:53.729Z,99648.81
2023-02-04T22:50:20.517Z,99638.13
2023-02-04T22:52:47.429Z,99644.84
2023-02-04T22:55:14.208Z,99646.81
2023-02-04T22:57:40.993Z,99646.81
2023-02-04T23:00:09.523Z,99654.72
2023-02-04T23:02:36.418Z,99646.81
2023-02-04T23:05:04.355Z,99651.94
2023-02-04T23:07:32.052Z,99649.97
2023-02-04T23:09:58.940Z,99638.91
2023-02-04T23:12:25.961Z,99638.53
2023-02-04T23:14:52.786Z,99638.13
2023-02-04T23:17:19.761Z,99636.16
2023-02-04T23:19:46.504Z,99641.28
2023-02-04T23:22:14.681Z,99652.31
2023-02-04T23:24:42.474Z,99648.38
2023-02-04T23:27:11.517Z,99651.56
2023-02-04T23:29:39.708Z,99644.44
2023-02-04T23:32:07.124Z,99638.94
2023-02-04T23:34:34.184Z,99640.47
2023-02-04T23:37:01.305Z,99636.94
2023-02-04T23:39:28.252Z,99647.22
2023-02-04T23:41:55.091Z,99646.81
2023-02-04T23:44:22.268Z,99636.56
2023-02-04T23:46:49.050Z,99642.84
2023-02-04T23:49:15.965Z,99638.91
2023-02-04T23:51:42.841Z,99640.50
2023-02-04T23:54:09.791Z,99641.66
2023-02-04T23:56:36.615Z,99647.97
2023-02-04T23:59:04.480Z,99640.88
